Fairfax, Oklahoma
Current Conditions -  °F | °C
As of 6:53 AM on Thursday 30 Oct 2014 (Local Time) from KPNC Reporting Station
Clear Clear  
Wind Chill: 47°   Ceiling: Unl
Heat Index: 47°   Visibility: 10mi
Dew Point: 39°   Wind: 0mph
Humidity: 74%   Direction: NA
Pressure: 30.08"   Gusts: NA
Location:  36.57°N, 96.7°W
Report Text: KPNC 301153Z AUTO 00000KT 10SM CLR 08/04 A3008 RMK AO2 SLP182 T00830039 10144 20083 53007
Loading
Personal Weather Stations






























Interactive Weather Map
Tropical Storm Tracking
New forecast layout! Learn more

10-Day Weather Forecast

Advertisements
Track Severe Weather on mobile